sensor_id;sensor_type;location;lat;lon;timestamp;P1;durP1;ratioP1;P2;durP2;ratioP2
21894;SDS011;11112;51.270;7.224;2024-01-07T00:02:09;21.85;;;14.90;;
21894;SDS011;11112;51.270;7.224;2024-01-07T00:04:36;20.95;;;14.40;;
21894;SDS011;11112;51.270;7.224;2024-01-07T00:07:03;21.60;;;14.40;;
21894;SDS011;11112;51.270;7.224;2024-01-07T00:09:30;21.58;;;14.60;;
21894;SDS011;11112;51.270;7.224;2024-01-07T00:11:57;22.60;;;15.45;;
21894;SDS011;11112;51.270;7.224;2024-01-07T00:14:24;25.30;;;16.33;;
21894;SDS011;11112;51.270;7.224;2024-01-07T00:16:51;22.27;;;15.65;;
21894;SDS011;11112;51.270;7.224;2024-01-07T00:19:20;33.47;;;21.00;;
21894;SDS011;11112;51.270;7.224;2024-01-07T00:21:47;32.90;;;21.60;;
21894;SDS011;11112;51.270;7.224;2024-01-07T00:24:14;36.72;;;23.58;;
21894;SDS011;11112;51.270;7.224;2024-01-07T00:26:42;34.58;;;20.95;;
21894;SDS011;11112;51.270;7.224;2024-01-07T00:29:09;26.80;;;17.80;;
21894;SDS011;11112;51.270;7.224;2024-01-07T00:31:36;21.48;;;15.52;;
21894;SDS011;11112;51.270;7.224;2024-01-07T00:34:02;20.70;;;14.60;;
21894;SDS011;11112;51.270;7.224;2024-01-07T00:36:31;20.83;;;14.23;;
21894;SDS011;11112;51.270;7.224;2024-01-07T00:38:58;18.25;;;12.77;;
21894;SDS011;11112;51.270;7.224;2024-01-07T00:41:25;21.30;;;14.57;;
21894;SDS011;11112;51.270;7.224;2024-01-07T00:43:52;24.30;;;16.02;;
21894;SDS011;11112;51.270;7.224;2024-01-07T00:46:19;25.05;;;17.90;;
21894;SDS011;11112;51.270;7.224;2024-01-07T00:48:46;24.70;;;18.23;;
21894;SDS011;11112;51.270;7.224;2024-01-07T00:51:13;26.83;;;20.40;;
21894;SDS011;11112;51.270;7.224;2024-01-07T00:53:41;27.00;;;19.98;;
21894;SDS011;11112;51.270;7.224;2024-01-07T00:56:09;24.38;;;18.33;;
21894;SDS011;11112;51.270;7.224;2024-01-07T00:58:36;25.10;;;18.13;;
21894;SDS011;11112;51.270;7.224;2024-01-07T01:01:03;28.45;;;21.00;;
21894;SDS011;11112;51.270;7.224;2024-01-07T01:03:31;28.83;;;21.17;;
21894;SDS011;11112;51.270;7.224;2024-01-07T01:05:58;29.30;;;20.42;;
21894;SDS011;11112;51.270;7.224;2024-01-07T01:08:27;27.35;;;20.05;;
21894;SDS011;11112;51.270;7.224;2024-01-07T01:10:56;25.20;;;19.35;;
21894;SDS011;11112;51.270;7.224;2024-01-07T01:13:23;26.92;;;18.92;;
21894;SDS011;11112;51.270;7.224;2024-01-07T01:15:50;26.30;;;19.42;;
21894;SDS011;11112;51.270;7.224;2024-01-07T01:18:17;21.08;;;16.13;;
21894;SDS011;11112;51.270;7.224;2024-01-07T01:20:44;19.45;;;15.10;;
21894;SDS011;11112;51.270;7.224;2024-01-07T01:23:11;19.48;;;13.98;;
21894;SDS011;11112;51.270;7.224;2024-01-07T01:25:38;18.33;;;14.00;;
21894;SDS011;11112;51.270;7.224;2024-01-07T01:28:07;17.23;;;13.00;;
21894;SDS011;11112;51.270;7.224;2024-01-07T01:30:34;17.08;;;12.95;;
21894;SDS011;11112;51.270;7.224;2024-01-07T01:33:01;19.65;;;13.40;;
21894;SDS011;11112;51.270;7.224;2024-01-07T01:35:28;16.65;;;12.55;;
21894;SDS011;11112;51.270;7.224;2024-01-07T01:37:55;19.15;;;14.05;;
21894;SDS011;11112;51.270;7.224;2024-01-07T01:40:22;20.90;;;14.40;;
21894;SDS011;11112;51.270;7.224;2024-01-07T01:42:49;21.98;;;15.73;;
21894;SDS011;11112;51.270;7.224;2024-01-07T01:45:17;21.85;;;15.63;;
21894;SDS011;11112;51.270;7.224;2024-01-07T01:47:45;22.42;;;16.02;;
21894;SDS011;11112;51.270;7.224;2024-01-07T01:50:11;23.27;;;17.05;;
21894;SDS011;11112;51.270;7.224;2024-01-07T01:52:39;23.15;;;16.00;;
21894;SDS011;11112;51.270;7.224;2024-01-07T01:55:07;23.73;;;16.77;;
21894;SDS011;11112;51.270;7.224;2024-01-07T01:57:34;26.30;;;16.88;;
21894;SDS011;11112;51.270;7.224;2024-01-07T02:00:05;24.17;;;16.60;;
21894;SDS011;11112;51.270;7.224;2024-01-07T02:02:35;27.60;;;18.27;;
21894;SDS011;11112;51.270;7.224;2024-01-07T02:05:02;25.25;;;17.42;;
21894;SDS011;11112;51.270;7.224;2024-01-07T02:07:30;23.25;;;15.45;;
21894;SDS011;11112;51.270;7.224;2024-01-07T02:09:57;25.42;;;16.08;;
21894;SDS011;11112;51.270;7.224;2024-01-07T02:12:25;22.52;;;14.93;;
21894;SDS011;11112;51.270;7.224;2024-01-07T02:14:52;19.60;;;13.30;;
21894;SDS011;11112;51.270;7.224;2024-01-07T02:17:19;18.52;;;13.50;;
21894;SDS011;11112;51.270;7.224;2024-01-07T02:19:48;19.92;;;13.27;;
21894;SDS011;11112;51.270;7.224;2024-01-07T02:22:15;19.17;;;13.07;;
21894;SDS011;11112;51.270;7.224;2024-01-07T02:24:45;22.02;;;14.15;;
21894;SDS011;11112;51.270;7.224;2024-01-07T02:27:12;20.27;;;13.77;;
21894;SDS011;11112;51.270;7.224;2024-01-07T02:29:39;21.52;;;15.02;;
21894;SDS011;11112;51.270;7.224;2024-01-07T02:32:06;21.60;;;15.38;;
21894;SDS011;11112;51.270;7.224;2024-01-07T02:34:33;22.45;;;15.23;;
21894;SDS011;11112;51.270;7.224;2024-01-07T02:37:00;25.83;;;15.68;;
21894;SDS011;11112;51.270;7.224;2024-01-07T02:39:27;21.88;;;14.73;;
21894;SDS011;11112;51.270;7.224;2024-01-07T02:41:56;21.55;;;15.18;;
21894;SDS011;11112;51.270;7.224;2024-01-07T02:44:23;22.30;;;15.23;;
21894;SDS011;11112;51.270;7.224;2024-01-07T02:46:50;21.50;;;14.63;;
21894;SDS011;11112;51.270;7.224;2024-01-07T02:49:17;23.23;;;14.85;;
21894;SDS011;11112;51.270;7.224;2024-01-07T02:51:44;23.08;;;14.60;;
21894;SDS011;11112;51.270;7.224;2024-01-07T02:54:14;20.73;;;13.95;;
21894;SDS011;11112;51.270;7.224;2024-01-07T02:56:41;21.42;;;15.55;;
21894;SDS011;11112;51.270;7.224;2024-01-07T02:59:09;22.48;;;15.77;;
21894;SDS011;11112;51.270;7.224;2024-01-07T03:01:36;25.50;;;16.67;;
21894;SDS011;11112;51.270;7.224;2024-01-07T03:04:05;22.55;;;16.30;;
21894;SDS011;11112;51.270;7.224;2024-01-07T03:06:32;25.17;;;16.90;;
21894;SDS011;11112;51.270;7.224;2024-01-07T03:09:00;26.45;;;17.13;;
21894;SDS011;11112;51.270;7.224;2024-01-07T03:11:28;27.55;;;18.30;;
21894;SDS011;11112;51.270;7.224;2024-01-07T03:13:55;27.00;;;17.52;;
21894;SDS011;11112;51.270;7.224;2024-01-07T03:16:24;25.95;;;18.10;;
21894;SDS011;11112;51.270;7.224;2024-01-07T03:18:52;27.10;;;18.73;;
21894;SDS011;11112;51.270;7.224;2024-01-07T03:21:20;27.80;;;18.83;;
21894;SDS011;11112;51.270;7.224;2024-01-07T03:23:49;25.75;;;18.00;;
21894;SDS011;11112;51.270;7.224;2024-01-07T03:26:17;27.05;;;18.80;;
21894;SDS011;11112;51.270;7.224;2024-01-07T03:28:45;27.20;;;18.63;;
21894;SDS011;11112;51.270;7.224;2024-01-07T03:31:13;28.02;;;18.15;;
21894;SDS011;11112;51.270;7.224;2024-01-07T03:33:43;24.85;;;17.25;;
21894;SDS011;11112;51.270;7.224;2024-01-07T03:36:11;26.02;;;17.75;;
21894;SDS011;11112;51.270;7.224;2024-01-07T03:38:40;24.75;;;16.60;;
21894;SDS011;11112;51.270;7.224;2024-01-07T03:41:07;24.90;;;16.90;;
21894;SDS011;11112;51.270;7.224;2024-01-07T03:43:34;24.17;;;16.25;;
21894;SDS011;11112;51.270;7.224;2024-01-07T03:46:02;25.77;;;16.70;;
21894;SDS011;11112;51.270;7.224;2024-01-07T03:48:28;24.10;;;16.70;;
21894;SDS011;11112;51.270;7.224;2024-01-07T03:50:56;20.98;;;15.68;;
21894;SDS011;11112;51.270;7.224;2024-01-07T03:53:23;23.55;;;15.65;;
21894;SDS011;11112;51.270;7.224;2024-01-07T03:55:50;23.23;;;16.25;;
21894;SDS011;11112;51.270;7.224;2024-01-07T03:58:17;23.27;;;15.98;;
21894;SDS011;11112;51.270;7.224;2024-01-07T04:00:44;24.77;;;16.85;;
21894;SDS011;11112;51.270;7.224;2024-01-07T04:03:12;23.88;;;17.13;;
21894;SDS011;11112;51.270;7.224;2024-01-07T04:05:39;27.45;;;17.38;;
21894;SDS011;11112;51.270;7.224;2024-01-07T04:08:08;24.83;;;16.52;;
21894;SDS011;11112;51.270;7.224;2024-01-07T04:10:36;24.60;;;16.98;;
21894;SDS011;11112;51.270;7.224;2024-01-07T04:13:03;25.02;;;16.92;;
21894;SDS011;11112;51.270;7.224;2024-01-07T04:15:31;24.33;;;16.02;;
21894;SDS011;11112;51.270;7.224;2024-01-07T04:18:00;25.35;;;17.60;;
21894;SDS011;11112;51.270;7.224;2024-01-07T04:20:28;25.02;;;16.98;;
21894;SDS011;11112;51.270;7.224;2024-01-07T04:22:55;25.25;;;17.83;;
21894;SDS011;11112;51.270;7.224;2024-01-07T04:25:24;26.05;;;17.83;;
21894;SDS011;11112;51.270;7.224;2024-01-07T04:27:51;28.80;;;18.38;;
21894;SDS011;11112;51.270;7.224;2024-01-07T04:30:18;23.92;;;16.60;;
21894;SDS011;11112;51.270;7.224;2024-01-07T04:32:46;23.35;;;16.85;;
21894;SDS011;11112;51.270;7.224;2024-01-07T04:35:13;21.98;;;16.23;;
21894;SDS011;11112;51.270;7.224;2024-01-07T04:37:40;24.92;;;16.25;;
21894;SDS011;11112;51.270;7.224;2024-01-07T04:40:08;21.63;;;16.23;;
21894;SDS011;11112;51.270;7.224;2024-01-07T04:42:38;21.35;;;15.63;;
21894;SDS011;11112;51.270;7.224;2024-01-07T04:45:05;21.85;;;16.10;;
21894;SDS011;11112;51.270;7.224;2024-01-07T04:47:33;22.63;;;16.48;;
21894;SDS011;11112;51.270;7.224;2024-01-07T04:50:00;22.30;;;16.00;;
21894;SDS011;11112;51.270;7.224;2024-01-07T04:52:29;23.20;;;16.85;;
21894;SDS011;11112;51.270;7.224;2024-01-07T04:54:56;23.73;;;16.35;;
21894;SDS011;11112;51.270;7.224;2024-01-07T04:57:23;22.30;;;15.73;;
21894;SDS011;11112;51.270;7.224;2024-01-07T04:59:52;24.25;;;16.33;;
21894;SDS011;11112;51.270;7.224;2024-01-07T05:02:22;24.38;;;17.02;;
21894;SDS011;11112;51.270;7.224;2024-01-07T05:04:49;23.77;;;17.25;;
21894;SDS011;11112;51.270;7.224;2024-01-07T05:07:16;25.77;;;17.77;;
21894;SDS011;11112;51.270;7.224;2024-01-07T05:09:43;26.33;;;17.63;;
21894;SDS011;11112;51.270;7.224;2024-01-07T05:12:10;28.42;;;18.80;;
21894;SDS011;11112;51.270;7.224;2024-01-07T05:14:37;28.50;;;18.88;;
21894;SDS011;11112;51.270;7.224;2024-01-07T05:17:06;27.98;;;18.98;;
21894;SDS011;11112;51.270;7.224;2024-01-07T05:19:33;29.23;;;18.45;;
21894;SDS011;11112;51.270;7.224;2024-01-07T05:22:00;28.92;;;18.65;;
21894;SDS011;11112;51.270;7.224;2024-01-07T05:24:27;28.00;;;18.75;;
21894;SDS011;11112;51.270;7.224;2024-01-07T05:26:54;27.10;;;17.92;;
21894;SDS011;11112;51.270;7.224;2024-01-07T05:29:21;25.88;;;17.52;;
21894;SDS011;11112;51.270;7.224;2024-01-07T05:31:48;26.98;;;16.92;;
21894;SDS011;11112;51.270;7.224;2024-01-07T05:34:17;26.98;;;17.10;;
21894;SDS011;11112;51.270;7.224;2024-01-07T05:36:44;25.88;;;17.38;;
21894;SDS011;11112;51.270;7.224;2024-01-07T05:39:11;26.83;;;16.88;;
21894;SDS011;11112;51.270;7.224;2024-01-07T05:41:38;24.02;;;17.02;;
21894;SDS011;11112;51.270;7.224;2024-01-07T05:44:06;24.88;;;16.80;;
21894;SDS011;11112;51.270;7.224;2024-01-07T05:46:34;24.00;;;16.60;;
21894;SDS011;11112;51.270;7.224;2024-01-07T05:49:04;26.08;;;17.52;;
21894;SDS011;11112;51.270;7.224;2024-01-07T05:51:33;21.90;;;15.57;;
21894;SDS011;11112;51.270;7.224;2024-01-07T05:54:00;21.38;;;15.35;;
21894;SDS011;11112;51.270;7.224;2024-01-07T05:56:27;22.50;;;15.50;;
21894;SDS011;11112;51.270;7.224;2024-01-07T05:58:54;22.92;;;15.32;;
21894;SDS011;11112;51.270;7.224;2024-01-07T06:01:21;25.13;;;15.18;;
21894;SDS011;11112;51.270;7.224;2024-01-07T06:03:48;22.17;;;15.68;;
21894;SDS011;11112;51.270;7.224;2024-01-07T06:06:15;22.48;;;15.63;;
21894;SDS011;11112;51.270;7.224;2024-01-07T06:08:44;23.45;;;16.05;;
21894;SDS011;11112;51.270;7.224;2024-01-07T06:11:11;24.50;;;16.42;;
21894;SDS011;11112;51.270;7.224;2024-01-07T06:13:43;24.73;;;16.50;;
21894;SDS011;11112;51.270;7.224;2024-01-07T06:16:10;23.17;;;16.45;;
21894;SDS011;11112;51.270;7.224;2024-01-07T06:18:37;25.35;;;17.05;;
21894;SDS011;11112;51.270;7.224;2024-01-07T06:21:05;22.85;;;16.15;;
21894;SDS011;11112;51.270;7.224;2024-01-07T06:23:32;26.45;;;17.80;;
21894;SDS011;11112;51.270;7.224;2024-01-07T06:26:02;25.73;;;17.75;;
21894;SDS011;11112;51.270;7.224;2024-01-07T06:28:29;22.50;;;15.70;;
21894;SDS011;11112;51.270;7.224;2024-01-07T06:30:57;26.60;;;16.98;;
21894;SDS011;11112;51.270;7.224;2024-01-07T06:33:24;25.30;;;16.77;;
21894;SDS011;11112;51.270;7.224;2024-01-07T06:35:51;24.73;;;16.52;;
21894;SDS011;11112;51.270;7.224;2024-01-07T06:38:18;23.40;;;16.30;;
21894;SDS011;11112;51.270;7.224;2024-01-07T06:40:45;25.33;;;17.23;;
21894;SDS011;11112;51.270;7.224;2024-01-07T06:43:14;26.23;;;17.25;;
21894;SDS011;11112;51.270;7.224;2024-01-07T06:45:41;24.52;;;17.00;;
21894;SDS011;11112;51.270;7.224;2024-01-07T06:48:09;23.95;;;16.33;;
21894;SDS011;11112;51.270;7.224;2024-01-07T06:50:36;29.55;;;16.95;;
21894;SDS011;11112;51.270;7.224;2024-01-07T06:53:03;26.70;;;17.50;;
21894;SDS011;11112;51.270;7.224;2024-01-07T06:55:30;23.98;;;16.83;;
21894;SDS011;11112;51.270;7.224;2024-01-07T06:57:57;27.85;;;18.05;;
21894;SDS011;11112;51.270;7.224;2024-01-07T07:00:31;24.80;;;17.05;;
21894;SDS011;11112;51.270;7.224;2024-01-07T07:02:58;25.65;;;16.85;;
21894;SDS011;11112;51.270;7.224;2024-01-07T07:05:25;27.27;;;17.70;;
21894;SDS011;11112;51.270;7.224;2024-01-07T07:07:52;27.13;;;17.83;;
21894;SDS011;11112;51.270;7.224;2024-01-07T07:10:19;26.55;;;16.83;;
21894;SDS011;11112;51.270;7.224;2024-01-07T07:12:46;31.98;;;22.05;;
21894;SDS011;11112;51.270;7.224;2024-01-07T07:15:15;24.58;;;16.10;;
21894;SDS011;11112;51.270;7.224;2024-01-07T07:17:44;25.90;;;17.70;;
21894;SDS011;11112;51.270;7.224;2024-01-07T07:20:11;25.80;;;17.88;;
21894;SDS011;11112;51.270;7.224;2024-01-07T07:22:39;24.42;;;17.75;;
21894;SDS011;11112;51.270;7.224;2024-01-07T07:25:06;28.83;;;19.00;;
21894;SDS011;11112;51.270;7.224;2024-01-07T07:27:34;26.75;;;18.15;;
21894;SDS011;11112;51.270;7.224;2024-01-07T07:30:02;29.77;;;19.17;;
21894;SDS011;11112;51.270;7.224;2024-01-07T07:32:31;27.40;;;18.10;;
21894;SDS011;11112;51.270;7.224;2024-01-07T07:35:00;25.83;;;17.80;;
21894;SDS011;11112;51.270;7.224;2024-01-07T07:37:27;26.35;;;18.00;;
21894;SDS011;11112;51.270;7.224;2024-01-07T07:39:54;28.45;;;19.20;;
21894;SDS011;11112;51.270;7.224;2024-01-07T07:42:21;29.27;;;18.38;;
21894;SDS011;11112;51.270;7.224;2024-01-07T07:44:48;28.52;;;18.70;;
21894;SDS011;11112;51.270;7.224;2024-01-07T07:47:15;25.77;;;17.88;;
21894;SDS011;11112;51.270;7.224;2024-01-07T07:49:42;28.13;;;18.95;;
21894;SDS011;11112;51.270;7.224;2024-01-07T07:52:11;28.65;;;18.58;;
21894;SDS011;11112;51.270;7.224;2024-01-07T07:54:39;26.33;;;17.88;;
21894;SDS011;11112;51.270;7.224;2024-01-07T07:57:06;27.85;;;17.48;;
21894;SDS011;11112;51.270;7.224;2024-01-07T07:59:33;27.05;;;16.67;;
21894;SDS011;11112;51.270;7.224;2024-01-07T08:02:00;27.00;;;16.65;;
21894;SDS011;11112;51.270;7.224;2024-01-07T08:04:27;26.80;;;17.20;;
21894;SDS011;11112;51.270;7.224;2024-01-07T08:06:54;22.55;;;15.18;;
21894;SDS011;11112;51.270;7.224;2024-01-07T08:09:23;26.02;;;15.52;;
21894;SDS011;11112;51.270;7.224;2024-01-07T08:11:50;22.80;;;15.00;;
21894;SDS011;11112;51.270;7.224;2024-01-07T08:14:17;22.98;;;14.50;;
21894;SDS011;11112;51.270;7.224;2024-01-07T08:16:44;21.35;;;14.43;;
21894;SDS011;11112;51.270;7.224;2024-01-07T08:19:12;22.98;;;14.70;;
21894;SDS011;11112;51.270;7.224;2024-01-07T08:21:39;22.23;;;13.88;;
21894;SDS011;11112;51.270;7.224;2024-01-07T08:24:06;21.35;;;13.98;;
21894;SDS011;11112;51.270;7.224;2024-01-07T08:26:34;20.20;;;14.10;;
21894;SDS011;11112;51.270;7.224;2024-01-07T08:29:01;20.40;;;14.02;;
21894;SDS011;11112;51.270;7.224;2024-01-07T08:31:28;20.88;;;13.02;;
21894;SDS011;11112;51.270;7.224;2024-01-07T08:33:55;19.73;;;13.35;;
21894;SDS011;11112;51.270;7.224;2024-01-07T08:36:22;17.13;;;12.20;;
21894;SDS011;11112;51.270;7.224;2024-01-07T08:38:49;18.63;;;11.90;;
21894;SDS011;11112;51.270;7.224;2024-01-07T08:41:17;16.10;;;11.55;;
21894;SDS011;11112;51.270;7.224;2024-01-07T08:43:45;15.57;;;11.23;;
21894;SDS011;11112;51.270;7.224;2024-01-07T08:46:13;14.15;;;9.65;;
21894;SDS011;11112;51.270;7.224;2024-01-07T08:48:40;13.98;;;9.88;;
21894;SDS011;11112;51.270;7.224;2024-01-07T08:51:07;11.60;;;9.20;;
21894;SDS011;11112;51.270;7.224;2024-01-07T08:53:34;12.73;;;8.98;;
21894;SDS011;11112;51.270;7.224;2024-01-07T08:56:01;13.30;;;9.52;;
21894;SDS011;11112;51.270;7.224;2024-01-07T08:58:28;11.52;;;9.13;;
21894;SDS011;11112;51.270;7.224;2024-01-07T09:00:57;12.98;;;9.45;;
21894;SDS011;11112;51.270;7.224;2024-01-07T09:03:24;14.50;;;10.23;;
21894;SDS011;11112;51.270;7.224;2024-01-07T09:05:51;13.85;;;9.88;;
21894;SDS011;11112;51.270;7.224;2024-01-07T09:08:18;14.35;;;10.35;;
21894;SDS011;11112;51.270;7.224;2024-01-07T09:10:45;14.93;;;10.52;;
21894;SDS011;11112;51.270;7.224;2024-01-07T09:13:12;15.73;;;10.80;;
21894;SDS011;11112;51.270;7.224;2024-01-07T09:15:39;16.38;;;11.30;;
21894;SDS011;11112;51.270;7.224;2024-01-07T09:18:07;16.45;;;12.10;;
21894;SDS011;11112;51.270;7.224;2024-01-07T09:20:35;18.08;;;12.43;;
21894;SDS011;11112;51.270;7.224;2024-01-07T09:23:02;17.88;;;11.77;;
21894;SDS011;11112;51.270;7.224;2024-01-07T09:25:29;20.88;;;13.63;;
21894;SDS011;11112;51.270;7.224;2024-01-07T09:27:56;19.10;;;13.18;;
21894;SDS011;11112;51.270;7.224;2024-01-07T09:30:23;20.25;;;13.38;;
21894;SDS011;11112;51.270;7.224;2024-01-07T09:32:50;21.00;;;13.60;;
21894;SDS011;11112;51.270;7.224;2024-01-07T09:35:19;21.38;;;14.07;;
21894;SDS011;11112;51.270;7.224;2024-01-07T09:37:46;21.52;;;13.95;;
21894;SDS011;11112;51.270;7.224;2024-01-07T09:40:16;18.83;;;13.32;;
21894;SDS011;11112;51.270;7.224;2024-01-07T09:42:44;19.88;;;13.50;;
21894;SDS011;11112;51.270;7.224;2024-01-07T09:45:12;19.60;;;13.13;;
21894;SDS011;11112;51.270;7.224;2024-01-07T09:47:40;19.17;;;13.02;;
21894;SDS011;11112;51.270;7.224;2024-01-07T09:50:09;18.63;;;13.20;;
21894;SDS011;11112;51.270;7.224;2024-01-07T09:52:38;19.17;;;12.70;;
21894;SDS011;11112;51.270;7.224;2024-01-07T09:55:11;20.35;;;12.65;;
21894;SDS011;11112;51.270;7.224;2024-01-07T09:57:45;21.08;;;13.32;;
21894;SDS011;11112;51.270;7.224;2024-01-07T10:00:14;20.67;;;12.93;;
21894;SDS011;11112;51.270;7.224;2024-01-07T10:02:48;17.67;;;12.48;;
21894;SDS011;11112;51.270;7.224;2024-01-07T10:05:15;17.17;;;12.00;;
21894;SDS011;11112;51.270;7.224;2024-01-07T10:07:44;19.85;;;13.30;;
21894;SDS011;11112;51.270;7.224;2024-01-07T10:10:12;17.80;;;12.00;;
21894;SDS011;11112;51.270;7.224;2024-01-07T10:12:40;17.52;;;12.07;;
21894;SDS011;11112;51.270;7.224;2024-01-07T10:15:08;17.60;;;11.88;;
21894;SDS011;11112;51.270;7.224;2024-01-07T10:17:35;17.10;;;11.55;;
21894;SDS011;11112;51.270;7.224;2024-01-07T10:20:04;17.85;;;11.23;;
21894;SDS011;11112;51.270;7.224;2024-01-07T10:22:34;18.60;;;11.10;;
21894;SDS011;11112;51.270;7.224;2024-01-07T10:25:04;17.60;;;10.85;;
21894;SDS011;11112;51.270;7.224;2024-01-07T10:27:33;17.08;;;10.45;;
21894;SDS011;11112;51.270;7.224;2024-01-07T10:30:01;16.15;;;10.95;;
21894;SDS011;11112;51.270;7.224;2024-01-07T10:32:29;17.38;;;10.55;;
21894;SDS011;11112;51.270;7.224;2024-01-07T10:34:57;16.08;;;10.35;;
21894;SDS011;11112;51.270;7.224;2024-01-07T10:37:29;18.15;;;10.18;;
21894;SDS011;11112;51.270;7.224;2024-01-07T10:39:58;17.55;;;10.68;;
21894;SDS011;11112;51.270;7.224;2024-01-07T10:42:29;18.77;;;10.27;;
21894;SDS011;11112;51.270;7.224;2024-01-07T10:44:58;18.20;;;10.50;;
21894;SDS011;11112;51.270;7.224;2024-01-07T10:47:25;20.48;;;11.23;;
21894;SDS011;11112;51.270;7.224;2024-01-07T10:49:57;16.02;;;10.43;;
21894;SDS011;11112;51.270;7.224;2024-01-07T10:52:26;16.65;;;9.88;;
21894;SDS011;11112;51.270;7.224;2024-01-07T10:54:55;15.52;;;10.35;;
21894;SDS011;11112;51.270;7.224;2024-01-07T10:57:27;18.02;;;10.20;;
21894;SDS011;11112;51.270;7.224;2024-01-07T11:00:02;17.33;;;10.43;;
21894;SDS011;11112;51.270;7.224;2024-01-07T11:02:45;17.83;;;10.18;;
21894;SDS011;11112;51.270;7.224;2024-01-07T11:05:23;15.63;;;9.88;;
21894;SDS011;11112;51.270;7.224;2024-01-07T11:08:05;16.23;;;9.70;;
21894;SDS011;11112;51.270;7.224;2024-01-07T11:10:41;16.05;;;10.45;;
21894;SDS011;11112;51.270;7.224;2024-01-07T11:16:01;13.35;;;8.80;;
21894;SDS011;11112;51.270;7.224;2024-01-07T11:18:29;14.30;;;8.55;;
21894;SDS011;11112;51.270;7.224;2024-01-07T11:20:59;14.73;;;8.18;;
21894;SDS011;11112;51.270;7.224;2024-01-07T11:23:28;15.25;;;8.40;;
21894;SDS011;11112;51.270;7.224;2024-01-07T11:25:58;14.63;;;8.75;;
21894;SDS011;11112;51.270;7.224;2024-01-07T11:31:17;11.60;;;7.45;;
21894;SDS011;11112;51.270;7.224;2024-01-07T11:33:46;12.82;;;7.75;;
21894;SDS011;11112;51.270;7.224;2024-01-07T11:36:14;13.43;;;8.02;;
21894;SDS011;11112;51.270;7.224;2024-01-07T11:38:43;13.43;;;7.60;;
21894;SDS011;11112;51.270;7.224;2024-01-07T11:41:11;11.10;;;7.25;;
21894;SDS011;11112;51.270;7.224;2024-01-07T11:43:52;12.07;;;6.85;;
21894;SDS011;11112;51.270;7.224;2024-01-07T11:46:21;12.43;;;7.88;;
21894;SDS011;11112;51.270;7.224;2024-01-07T11:48:49;10.07;;;6.85;;
21894;SDS011;11112;51.270;7.224;2024-01-07T11:51:16;12.45;;;7.32;;
21894;SDS011;11112;51.270;7.224;2024-01-07T11:53:45;10.10;;;6.63;;
21894;SDS011;11112;51.270;7.224;2024-01-07T11:56:13;11.77;;;6.65;;
21894;SDS011;11112;51.270;7.224;2024-01-07T11:58:40;11.10;;;6.70;;
21894;SDS011;11112;51.270;7.224;2024-01-07T12:01:09;11.40;;;6.38;;
21894;SDS011;11112;51.270;7.224;2024-01-07T12:03:36;10.32;;;6.97;;
21894;SDS011;11112;51.270;7.224;2024-01-07T12:06:03;10.43;;;6.55;;
21894;SDS011;11112;51.270;7.224;2024-01-07T12:08:31;9.75;;;6.70;;
21894;SDS011;11112;51.270;7.224;2024-01-07T12:10:59;10.85;;;6.20;;
21894;SDS011;11112;51.270;7.224;2024-01-07T12:13:27;9.68;;;6.50;;
21894;SDS011;11112;51.270;7.224;2024-01-07T12:15:54;11.23;;;6.60;;
21894;SDS011;11112;51.270;7.224;2024-01-07T12:18:23;10.23;;;7.00;;
21894;SDS011;11112;51.270;7.224;2024-01-07T12:20:54;10.88;;;6.53;;
21894;SDS011;11112;51.270;7.224;2024-01-07T12:23:23;10.13;;;6.30;;
21894;SDS011;11112;51.270;7.224;2024-01-07T12:25:51;10.02;;;6.28;;
21894;SDS011;11112;51.270;7.224;2024-01-07T12:28:18;9.82;;;7.15;;
21894;SDS011;11112;51.270;7.224;2024-01-07T12:30:45;12.07;;;8.13;;
21894;SDS011;11112;51.270;7.224;2024-01-07T12:33:15;10.05;;;6.80;;
21894;SDS011;11112;51.270;7.224;2024-01-07T12:35:47;11.02;;;6.80;;
21894;SDS011;11112;51.270;7.224;2024-01-07T12:38:14;10.30;;;6.88;;
21894;SDS011;11112;51.270;7.224;2024-01-07T12:40:41;9.93;;;6.53;;
21894;SDS011;11112;51.270;7.224;2024-01-07T12:43:08;12.65;;;6.57;;
21894;SDS011;11112;51.270;7.224;2024-01-07T12:45:35;12.00;;;6.50;;
21894;SDS011;11112;51.270;7.224;2024-01-07T12:48:02;9.05;;;6.47;;
21894;SDS011;11112;51.270;7.224;2024-01-07T12:50:30;9.75;;;6.53;;
21894;SDS011;11112;51.270;7.224;2024-01-07T12:52:59;9.98;;;6.18;;
21894;SDS011;11112;51.270;7.224;2024-01-07T12:55:31;9.00;;;6.13;;
21894;SDS011;11112;51.270;7.224;2024-01-07T12:58:00;10.48;;;6.55;;
21894;SDS011;11112;51.270;7.224;2024-01-07T13:00:27;10.23;;;6.70;;
21894;SDS011;11112;51.270;7.224;2024-01-07T13:02:54;10.25;;;6.28;;
21894;SDS011;11112;51.270;7.224;2024-01-07T13:05:22;8.93;;;6.20;;
21894;SDS011;11112;51.270;7.224;2024-01-07T13:07:49;10.13;;;6.60;;
21894;SDS011;11112;51.270;7.224;2024-01-07T13:10:18;9.60;;;6.18;;
21894;SDS011;11112;51.270;7.224;2024-01-07T13:12:45;10.23;;;6.78;;
21894;SDS011;11112;51.270;7.224;2024-01-07T13:15:12;8.98;;;6.00;;
21894;SDS011;11112;51.270;7.224;2024-01-07T13:17:39;10.38;;;5.97;;
21894;SDS011;11112;51.270;7.224;2024-01-07T13:20:07;8.93;;;6.10;;
21894;SDS011;11112;51.270;7.224;2024-01-07T13:22:36;8.80;;;5.78;;
21894;SDS011;11112;51.270;7.224;2024-01-07T13:25:04;9.05;;;5.90;;
21894;SDS011;11112;51.270;7.224;2024-01-07T13:27:33;8.85;;;5.65;;
21894;SDS011;11112;51.270;7.224;2024-01-07T13:30:00;8.77;;;5.57;;
21894;SDS011;11112;51.270;7.224;2024-01-07T13:32:27;10.15;;;5.90;;
21894;SDS011;11112;51.270;7.224;2024-01-07T13:34:55;8.50;;;5.68;;
21894;SDS011;11112;51.270;7.224;2024-01-07T13:37:22;8.38;;;5.30;;
21894;SDS011;11112;51.270;7.224;2024-01-07T13:39:49;7.65;;;5.20;;
21894;SDS011;11112;51.270;7.224;2024-01-07T13:42:16;10.15;;;5.28;;
21894;SDS011;11112;51.270;7.224;2024-01-07T13:44:44;8.55;;;4.70;;
21894;SDS011;11112;51.270;7.224;2024-01-07T13:47:12;10.70;;;5.32;;
21894;SDS011;11112;51.270;7.224;2024-01-07T13:49:40;8.93;;;4.85;;
21894;SDS011;11112;51.270;7.224;2024-01-07T13:52:07;8.38;;;4.90;;
21894;SDS011;11112;51.270;7.224;2024-01-07T13:54:34;7.47;;;4.30;;
21894;SDS011;11112;51.270;7.224;2024-01-07T13:57:02;7.05;;;4.22;;
21894;SDS011;11112;51.270;7.224;2024-01-07T13:59:30;5.93;;;4.07;;
21894;SDS011;11112;51.270;7.224;2024-01-07T14:01:58;8.10;;;4.28;;
21894;SDS011;11112;51.270;7.224;2024-01-07T14:04:25;5.68;;;3.83;;
21894;SDS011;11112;51.270;7.224;2024-01-07T14:06:53;8.82;;;4.30;;
21894;SDS011;11112;51.270;7.224;2024-01-07T14:09:21;7.20;;;3.88;;
21894;SDS011;11112;51.270;7.224;2024-01-07T14:11:48;6.15;;;3.63;;
21894;SDS011;11112;51.270;7.224;2024-01-07T14:14:15;6.80;;;3.78;;
21894;SDS011;11112;51.270;7.224;2024-01-07T14:16:44;6.03;;;3.67;;
21894;SDS011;11112;51.270;7.224;2024-01-07T14:19:13;7.00;;;4.20;;
21894;SDS011;11112;51.270;7.224;2024-01-07T14:21:41;7.93;;;4.20;;
21894;SDS011;11112;51.270;7.224;2024-01-07T14:24:08;6.53;;;4.05;;
21894;SDS011;11112;51.270;7.224;2024-01-07T14:26:35;5.95;;;3.65;;
21894;SDS011;11112;51.270;7.224;2024-01-07T14:29:02;5.53;;;3.50;;
21894;SDS011;11112;51.270;7.224;2024-01-07T14:31:30;7.00;;;3.85;;
21894;SDS011;11112;51.270;7.224;2024-01-07T14:33:57;4.85;;;3.30;;
21894;SDS011;11112;51.270;7.224;2024-01-07T14:36:26;6.97;;;3.38;;